createdAt,value
2022-12-20T00:00:36.089Z,101536.47
2022-12-20T00:02:38.503Z,101541.56
2022-12-20T00:04:40.649Z,101546.03
2022-12-20T00:06:43.311Z,101539.03
2022-12-20T00:08:45.573Z,101545.13
2022-12-20T00:10:47.668Z,101537.94
2022-12-20T00:21:41.079Z,101549.41
2022-12-20T00:23:43.768Z,101550.66
2022-12-20T00:26:53.795Z,101542.50
2022-12-20T00:28:57.179Z,101558.38
2022-12-20T00:30:59.548Z,101555.50
2022-12-20T00:33:01.781Z,101546.91
2022-12-20T00:35:04.587Z,101544.34
2022-12-20T00:37:06.910Z,101545.13
2022-12-20T00:39:13.495Z,101539.03
2022-12-20T00:41:18.860Z,101546.16
2022-12-20T00:43:21.125Z,101545.38
2022-12-20T00:45:23.644Z,101550.66
2022-12-20T00:47:25.802Z,101550.19
2022-12-20T00:49:30.627Z,101549.47
2022-12-20T00:51:33.011Z,101541.50
2022-12-20T00:53:36.525Z,101536.13
2022-12-20T00:55:56.733Z,101535.16
2022-12-20T00:58:01.240Z,101528.13
2022-12-20T01:00:07.317Z,101525.53
2022-12-20T01:02:09.629Z,101524.66
2022-12-20T01:04:11.865Z,101518.53
2022-12-20T01:06:18.417Z,101519.34
2022-12-20T01:08:22.657Z,101515.59
2022-12-20T01:10:25.478Z,101514.72
2022-12-20T01:12:27.469Z,101515.69
2022-12-20T01:14:29.464Z,101505.16
2022-12-20T01:16:35.833Z,101505.84
2022-12-20T01:18:38.120Z,101505.84
2022-12-20T01:20:40.724Z,101506.75
2022-12-20T01:22:47.537Z,101503.31
2022-12-20T01:24:50.061Z,101502.66
2022-12-20T01:26:52.092Z,101494.78
2022-12-20T01:28:57.506Z,101498.09
2022-12-20T01:31:02.566Z,101494.63
2022-12-20T01:33:04.633Z,101491.84
2022-12-20T01:35:07.344Z,101489.09
2022-12-20T01:37:10.480Z,101488.13
2022-12-20T01:39:15.369Z,101480.19
2022-12-20T01:41:22.383Z,101481.97
2022-12-20T01:43:26.230Z,101487.19
2022-12-20T01:45:31.214Z,101480.25
2022-12-20T01:47:37.241Z,101475.00
2022-12-20T01:49:44.519Z,101488.38
2022-12-20T01:52:05.687Z,101487.31
2022-12-20T01:54:14.423Z,101485.56
2022-12-20T01:56:16.724Z,101480.97
2022-12-20T01:58:21.837Z,101475.78
2022-12-20T02:00:24.503Z,101478.66
2022-12-20T02:02:27.546Z,101476.03
2022-12-20T02:04:29.909Z,101480.34
2022-12-20T02:06:32.045Z,101472.41
2022-12-20T02:08:35.886Z,101468.06
2022-12-20T02:10:47.177Z,101472.56
2022-12-20T02:12:56.532Z,101453.31
2022-12-20T02:15:13.571Z,101448.03
2022-12-20T02:17:34.486Z,101457.44
2022-12-20T02:19:54.656Z,101465.41
2022-12-20T02:22:28.258Z,101456.50
2022-12-20T02:24:55.383Z,101450.25
2022-12-20T02:26:57.720Z,101455.75
2022-12-20T02:29:36.977Z,101452.00
2022-12-20T02:31:48.046Z,101445.19
2022-12-20T02:33:54.978Z,101438.09
2022-12-20T02:36:00.518Z,101437.31
2022-12-20T02:38:05.448Z,101430.28
2022-12-20T02:40:08.435Z,101436.56
2022-12-20T02:42:15.955Z,101431.19
2022-12-20T02:44:39.506Z,101436.41
2022-12-20T02:46:45.204Z,101418.75
2022-12-20T02:48:49.576Z,101409.91
2022-12-20T02:50:55.935Z,101416.91
2022-12-20T02:52:59.920Z,101418.16
2022-12-20T02:55:03.633Z,101420.56
2022-12-20T02:57:22.776Z,101409.69
2022-12-20T02:59:42.886Z,101403.69
2022-12-20T03:01:50.551Z,101410.13
2022-12-20T03:03:54.733Z,101406.66
2022-12-20T03:05:57.239Z,101400.41
2022-12-20T03:07:59.896Z,101401.44
2022-12-20T03:10:02.022Z,101397.03
2022-12-20T03:12:05.141Z,101407.75
2022-12-20T03:14:10.979Z,101406.13
2022-12-20T03:16:13.280Z,101400.81
2022-12-20T03:18:15.722Z,101399.88
2022-12-20T03:20:17.785Z,101388.53
2022-12-20T03:22:23.782Z,101401.44
2022-12-20T03:24:31.518Z,101388.34
2022-12-20T03:26:34.802Z,101393.81
2022-12-20T03:28:37.232Z,101386.91
2022-12-20T03:30:41.113Z,101385.97
2022-12-20T03:32:43.863Z,101384.31
2022-12-20T03:34:47.364Z,101374.59
2022-12-20T03:36:53.057Z,101384.38
2022-12-20T03:38:56.356Z,101367.59
2022-12-20T03:41:00.332Z,101374.72
2022-12-20T03:43:05.204Z,101377.38
2022-12-20T03:45:07.890Z,101377.44
2022-12-20T03:47:10.174Z,101374.72
2022-12-20T03:49:15.858Z,101376.56
2022-12-20T03:51:23.305Z,101370.44
2022-12-20T03:53:25.904Z,101366.09
2022-12-20T03:55:28.825Z,101365.25
2022-12-20T03:57:31.068Z,101374.09
2022-12-20T03:59:34.617Z,101366.09
2022-12-20T04:01:38.836Z,101368.75
2022-12-20T04:03:44.269Z,101369.78
2022-12-20T04:05:46.854Z,101367.16
2022-12-20T04:07:49.045Z,101368.94
2022-12-20T04:09:51.536Z,101368.06
2022-12-20T04:11:53.803Z,101368.88
2022-12-20T04:13:56.010Z,101359.41
2022-12-20T04:16:00.987Z,101370.72
2022-12-20T04:18:07.157Z,101371.78
2022-12-20T04:20:21.012Z,101358.78
2022-12-20T04:22:30.852Z,101360.44
2022-12-20T04:24:38.723Z,101353.31
2022-12-20T04:26:51.957Z,101353.31
2022-12-20T04:28:54.181Z,101357.72
2022-12-20T04:30:58.939Z,101354.09
2022-12-20T04:33:04.634Z,101355.13
2022-12-20T04:35:07.873Z,101347.78
2022-12-20T04:37:15.407Z,101348.63
2022-12-20T04:39:28.210Z,101359.16
2022-12-20T04:41:53.083Z,101353.09
2022-12-20T04:43:57.481Z,101342.56
2022-12-20T04:46:05.767Z,101341.78
2022-12-20T04:48:46.007Z,101340.91
2022-12-20T04:50:52.747Z,101336.50
2022-12-20T04:53:13.914Z,101338.31
2022-12-20T04:55:16.547Z,101337.38
2022-12-20T04:57:18.877Z,101335.78
2022-12-20T04:59:21.466Z,101325.94
2022-12-20T05:01:27.291Z,101331.31
2022-12-20T05:03:29.786Z,101329.41
2022-12-20T05:05:32.567Z,101329.34
2022-12-20T05:07:34.859Z,101322.34
2022-12-20T05:09:37.719Z,101321.34
2022-12-20T05:11:40.563Z,101324.00
2022-12-20T05:13:46.991Z,101320.38
2022-12-20T05:15:54.512Z,101322.22
2022-12-20T05:18:00.569Z,101328.41
2022-12-20T05:20:11.207Z,101324.88
2022-12-20T05:22:35.398Z,101318.72
2022-12-20T05:25:00.784Z,101314.19
2022-12-20T05:27:06.567Z,101318.75
2022-12-20T05:29:08.540Z,101322.28
2022-12-20T05:31:11.057Z,101316.81
2022-12-20T05:33:13.251Z,101316.72
2022-12-20T05:35:17.678Z,101329.09
2022-12-20T05:37:22.635Z,101314.16
2022-12-20T05:39:25.043Z,101322.22
2022-12-20T05:41:29.904Z,101316.03
2022-12-20T05:43:35.401Z,101307.88
2022-12-20T05:45:38.858Z,101309.78
2022-12-20T05:47:48.611Z,101307.13
2022-12-20T05:49:54.288Z,101308.66
2022-12-20T05:51:56.899Z,101309.78
2022-12-20T05:54:02.283Z,101311.50
2022-12-20T05:56:16.973Z,101309.59
2022-12-20T05:58:19.519Z,101307.88
2022-12-20T06:00:34.667Z,101299.13
2022-12-20T06:02:37.196Z,101298.25
2022-12-20T06:04:39.708Z,101304.16
2022-12-20T06:06:49.733Z,101308.56
2022-12-20T06:08:56.462Z,101305.06
2022-12-20T06:11:11.804Z,101299.69
2022-12-20T06:13:24.362Z,101306.81
2022-12-20T06:15:29.566Z,101303.97
2022-12-20T06:17:33.138Z,101305.94
2022-12-20T06:19:35.964Z,101296.16
2022-12-20T06:21:38.246Z,101300.50
2022-12-20T06:23:52.686Z,101304.84
2022-12-20T06:25:55.760Z,101300.44
2022-12-20T06:28:00.631Z,101308.28
2022-12-20T06:30:06.253Z,101312.69
2022-12-20T06:32:20.839Z,101311.03
2022-12-20T06:34:24.463Z,101310.94
2022-12-20T06:36:27.082Z,101312.16
2022-12-20T06:38:29.663Z,101322.16
2022-12-20T06:40:32.093Z,101316.84
2022-12-20T06:42:36.658Z,101308.00
2022-12-20T06:44:38.777Z,101309.91
2022-12-20T06:46:41.244Z,101313.38
2022-12-20T06:48:43.632Z,101306.03
2022-12-20T06:50:55.589Z,101299.66
2022-12-20T06:52:59.375Z,101298.91
2022-12-20T06:55:01.449Z,101305.38
2022-12-20T06:57:07.798Z,101304.34
2022-12-20T06:59:10.490Z,101309.91
2022-12-20T07:01:12.784Z,101316.78
2022-12-20T07:03:15.828Z,101318.66
2022-12-20T07:05:18.159Z,101315.16
2022-12-20T07:07:20.371Z,101312.50
2022-12-20T07:09:22.917Z,101314.44
2022-12-20T07:11:25.156Z,101314.38
2022-12-20T07:13:28.226Z,101311.88
2022-12-20T07:15:30.667Z,101309.34
2022-12-20T07:17:32.798Z,101314.63
2022-12-20T07:19:37.623Z,101317.50
2022-12-20T07:21:39.961Z,101313.97
2022-12-20T07:23:42.430Z,101316.63
2022-12-20T07:25:52.458Z,101307.00
2022-12-20T07:27:54.571Z,101302.84
2022-12-20T07:29:59.558Z,101302.00
2022-12-20T07:32:01.715Z,101296.75
2022-12-20T07:34:07.005Z,101304.84
2022-12-20T07:36:12.773Z,101298.00
2022-12-20T07:38:14.842Z,101306.25
2022-12-20T07:40:17.716Z,101303.72
2022-12-20T07:42:20.061Z,101308.22
2022-12-20T07:44:25.210Z,101297.81
2022-12-20T07:46:28.806Z,101291.78
2022-12-20T07:48:34.507Z,101290.41
2022-12-20T07:50:37.714Z,101292.22
2022-12-20T07:52:44.287Z,101287.75
2022-12-20T07:54:54.251Z,101283.66
2022-12-20T07:57:00.884Z,101279.94
2022-12-20T07:59:04.454Z,101273.09
2022-12-20T08:01:07.697Z,101277.59
2022-12-20T08:03:17.248Z,101276.53
2022-12-20T08:05:19.450Z,101266.84
2022-12-20T08:07:21.672Z,101268.63
2022-12-20T08:09:26.168Z,101259.13
2022-12-20T08:11:30.559Z,101260.06
2022-12-20T08:13:34.008Z,101252.22
2022-12-20T08:15:39.724Z,101251.41
2022-12-20T08:17:41.644Z,101243.53
2022-12-20T08:19:43.707Z,101247.19
2022-12-20T08:21:45.632Z,101244.69
2022-12-20T08:23:47.765Z,101244.44
2022-12-20T08:25:50.332Z,101240.25
2022-12-20T08:27:53.531Z,101234.25
2022-12-20T08:29:55.588Z,101244.22
2022-12-20T08:31:57.928Z,101231.97
2022-12-20T08:33:59.904Z,101224.97
2022-12-20T08:36:04.654Z,101209.09
2022-12-20T08:38:07.671Z,101208.25
2022-12-20T08:40:10.500Z,101211.09
2022-12-20T08:42:12.926Z,101204.03
2022-12-20T08:44:15.223Z,101205.97
2022-12-20T08:46:17.821Z,101206.00
2022-12-20T08:48:19.964Z,101192.91
2022-12-20T08:50:22.057Z,101190.34
2022-12-20T08:52:24.235Z,101192.25
2022-12-20T08:54:26.239Z,101185.16
2022-12-20T08:56:28.712Z,101191.41
2022-12-20T08:58:30.947Z,101178.09
2022-12-20T09:00:36.944Z,101177.09
2022-12-20T09:02:41.559Z,101177.19
2022-12-20T09:04:44.590Z,101171.06
2022-12-20T09:06:47.432Z,101173.78
2022-12-20T09:08:50.207Z,101172.13
2022-12-20T09:10:53.345Z,101174.00
2022-12-20T09:12:55.387Z,101161.63
2022-12-20T09:14:57.881Z,101166.97
2022-12-20T09:16:59.907Z,101168.78
2022-12-20T09:19:05.833Z,101160.00
2022-12-20T09:21:10.035Z,101168.06
2022-12-20T09:23:12.345Z,101160.94
2022-12-20T09:25:14.448Z,101161.94
2022-12-20T09:27:16.333Z,101162.00
2022-12-20T09:29:25.818Z,101157.63
2022-12-20T09:31:29.549Z,101155.84
2022-12-20T09:33:34.003Z,101149.63
2022-12-20T09:35:36.014Z,101136.31
2022-12-20T09:37:38.249Z,101125.69
2022-12-20T09:39:40.271Z,101122.19
2022-12-20T09:41:44.357Z,101115.97
2022-12-20T09:43:46.482Z,101114.19
2022-12-20T09:45:53.826Z,101121.28
2022-12-20T09:47:56.074Z,101109.81
2022-12-20T09:49:58.614Z,101116.94
2022-12-20T09:52:29.469Z,101102.78
2022-12-20T09:54:57.134Z,101101.94
2022-12-20T09:57:24.263Z,101097.53
2022-12-20T09:59:26.748Z,101099.34
2022-12-20T10:01:38.287Z,101091.38
2022-12-20T10:03:42.063Z,101089.56
2022-12-20T10:05:56.636Z,101090.47
2022-12-20T10:08:08.803Z,101086.91
2022-12-20T10:10:21.915Z,101086.03
2022-12-20T10:12:27.539Z,101079.81
2022-12-20T10:14:44.858Z,101083.41
2022-12-20T10:16:51.683Z,101086.09
2022-12-20T10:18:55.197Z,101079.84
2022-12-20T10:21:06.187Z,101071.78
2022-12-20T10:23:13.946Z,101068.28
2022-12-20T10:25:23.342Z,101073.59
2022-12-20T10:27:26.035Z,101074.50
2022-12-20T10:29:29.802Z,101081.66
2022-12-20T10:31:31.890Z,101072.78
2022-12-20T10:33:35.481Z,101071.00
2022-12-20T10:35:40.621Z,101067.41
2022-12-20T10:38:13.428Z,101058.47
2022-12-20T10:40:53.371Z,101058.50
2022-12-20T10:42:53.074Z,101057.63
2022-12-20T10:44:56.373Z,101054.06
2022-12-20T10:47:01.306Z,101046.06
2022-12-20T10:49:27.133Z,101038.03
2022-12-20T10:51:29.415Z,101044.25
2022-12-20T10:53:32.962Z,101039.81
2022-12-20T10:55:40.584Z,101028.22
2022-12-20T10:57:43.275Z,101024.69
2022-12-20T11:00:05.823Z,101014.88
2022-12-20T11:02:38.803Z,101006.88
2022-12-20T11:04:42.571Z,101011.31
2022-12-20T11:06:45.787Z,101008.63
2022-12-20T11:08:54.148Z,101005.94
2022-12-20T11:11:19.892Z,101000.56
2022-12-20T11:13:29.518Z,101001.47
2022-12-20T11:15:39.198Z,100998.78
2022-12-20T11:17:47.711Z,100993.44
2022-12-20T11:20:22.676Z,101000.56
2022-12-20T11:22:34.062Z,101006.78
2022-12-20T11:25:20.607Z,101002.31
2022-12-20T11:27:31.375Z,100999.63
2022-12-20T11:29:56.247Z,101000.50
2022-12-20T11:32:08.655Z,100993.34
2022-12-20T11:34:16.336Z,100992.44
2022-12-20T11:36:50.572Z,100990.66
2022-12-20T11:39:15.857Z,100993.31
2022-12-20T11:41:43.567Z,100983.50
2022-12-20T11:44:25.930Z,100981.69
2022-12-20T11:46:34.975Z,100974.50
2022-12-20T11:48:49.121Z,100975.41
2022-12-20T11:51:04.278Z,100970.94
2022-12-20T11:53:23.257Z,100966.47
2022-12-20T11:55:30.042Z,100958.44
2022-12-20T11:58:09.538Z,100959.31
2022-12-20T12:00:22.842Z,100945.94
2022-12-20T12:02:44.009Z,100937.03
2022-12-20T12:05:01.645Z,100932.59
2022-12-20T12:07:20.329Z,100928.97
2022-12-20T12:09:32.176Z,100930.81
2022-12-20T12:12:05.838Z,100928.06
2022-12-20T12:14:05.053Z,100932.47
2022-12-20T12:16:11.818Z,100931.59
2022-12-20T12:18:20.049Z,100923.53
2022-12-20T12:20:52.363Z,100916.44
2022-12-20T12:23:03.315Z,100920.84
2022-12-20T12:25:11.585Z,100918.16
2022-12-20T12:27:25.963Z,100916.41
2022-12-20T12:29:30.104Z,100920.78
2022-12-20T12:31:50.970Z,100917.19
2022-12-20T12:34:27.669Z,100903.84
2022-12-20T12:37:10.074Z,100897.63
2022-12-20T12:39:31.290Z,100896.75
2022-12-20T12:41:51.828Z,100897.59
2022-12-20T12:43:57.651Z,100892.28
2022-12-20T12:46:01.976Z,100888.69
2022-12-20T12:48:22.773Z,100883.38
2022-12-20T12:50:26.750Z,100881.50
2022-12-20T12:52:43.915Z,100885.09
2022-12-20T12:54:52.141Z,100887.78
2022-12-20T12:57:06.940Z,100877.94
2022-12-20T12:59:21.129Z,100882.38
2022-12-20T13:01:54.660Z,100882.38
2022-12-20T13:03:56.848Z,100886.78
2022-12-20T13:05:59.194Z,100882.34
2022-12-20T13:08:05.760Z,100881.41
2022-12-20T13:10:18.633Z,100881.44
2022-12-20T13:12:39.060Z,100887.75
2022-12-20T13:14:43.528Z,100894.84
2022-12-20T13:17:11.468Z,100894.88
2022-12-20T13:19:25.177Z,100893.97
2022-12-20T13:21:35.540Z,100899.28
2022-12-20T13:23:37.873Z,100903.69
2022-12-20T13:25:41.737Z,100903.69
2022-12-20T13:27:44.070Z,100909.03
2022-12-20T13:30:12.556Z,100902.84
2022-12-20T13:32:51.712Z,100907.38
2022-12-20T13:34:56.972Z,100899.28
2022-12-20T13:36:59.765Z,100905.56
2022-12-20T13:39:24.302Z,100902.03
2022-12-20T13:41:35.806Z,100905.59
2022-12-20T13:43:48.731Z,100902.09
2022-12-20T13:46:09.598Z,100906.56
2022-12-20T13:48:18.297Z,100892.28
2022-12-20T13:50:30.284Z,100883.38
2022-12-20T13:52:38.726Z,100893.19
2022-12-20T13:54:43.534Z,100880.72
2022-12-20T13:56:49.558Z,100887.88
2022-12-20T13:58:53.237Z,100887.84
2022-12-20T14:01:06.412Z,100894.13
2022-12-20T14:03:29.730Z,100878.13
2022-12-20T14:05:37.208Z,100877.25
2022-12-20T14:07:40.447Z,100876.38
2022-12-20T14:09:46.140Z,100871.06
2022-12-20T14:11:48.636Z,100875.50
2022-12-20T14:14:01.150Z,100877.34
2022-12-20T14:16:18.146Z,100872.00
2022-12-20T14:18:25.939Z,100872.94
2022-12-20T14:20:33.264Z,100868.47
2022-12-20T14:22:36.875Z,100872.09
2022-12-20T14:24:45.009Z,100864.94
2022-12-20T14:26:51.737Z,100863.19
2022-12-20T14:28:57.297Z,100864.97
2022-12-20T14:31:01.471Z,100862.34
2022-12-20T14:33:03.988Z,100862.34
2022-12-20T14:38:04.474Z,100861.50
2022-12-20T14:40:09.727Z,100864.22
2022-12-20T14:42:12.073Z,100865.13
2022-12-20T14:44:17.581Z,100867.78
2022-12-20T14:46:22.773Z,100857.09
2022-12-20T14:48:24.946Z,100859.75
2022-12-20T14:50:38.445Z,100861.56
2022-12-20T14:52:42.723Z,100860.72
2022-12-20T14:55:07.682Z,100856.25
2022-12-20T14:57:22.179Z,100847.38
2022-12-20T14:59:27.812Z,100850.94
2022-12-20T15:01:35.953Z,100847.38
2022-12-20T15:03:57.630Z,100843.84
2022-12-20T15:06:00.893Z,100842.06
2022-12-20T15:08:14.800Z,100842.09
2022-12-20T15:10:20.144Z,100836.75
2022-12-20T15:12:22.632Z,100843.00
2022-12-20T15:14:37.315Z,100829.66
2022-12-20T15:16:47.559Z,100835.00
2022-12-20T15:18:59.279Z,100834.13
2022-12-20T15:21:11.171Z,100825.22
2022-12-20T15:23:19.418Z,100830.59
2022-12-20T15:25:21.691Z,100830.59
2022-12-20T15:27:24.664Z,100825.22
2022-12-20T15:29:29.771Z,100818.09
2022-12-20T15:31:35.374Z,100823.47
2022-12-20T15:33:40.182Z,100819.03
2022-12-20T15:35:48.553Z,100819.91
2022-12-20T15:37:51.239Z,100817.25
2022-12-20T15:39:53.308Z,100814.59
2022-12-20T15:41:55.917Z,100814.59
2022-12-20T15:44:06.183Z,100809.25
2022-12-20T15:46:08.575Z,100801.25
2022-12-20T15:48:33.787Z,100807.50
2022-12-20T15:50:35.979Z,100802.13
2022-12-20T15:52:38.260Z,100802.13
2022-12-20T15:54:43.171Z,100803.00
2022-12-20T15:56:45.348Z,100797.69
2022-12-20T15:58:48.624Z,100799.47
2022-12-20T16:00:54.564Z,100794.13
2022-12-20T16:02:59.573Z,100783.47
2022-12-20T16:05:02.186Z,100791.47
2022-12-20T16:07:07.515Z,100789.69
2022-12-20T16:09:14.628Z,100782.59
2022-12-20T16:11:21.592Z,100784.31
2022-12-20T16:13:25.576Z,100784.34
2022-12-20T16:15:27.684Z,100787.84
2022-12-20T16:17:29.810Z,100777.19
2022-12-20T16:19:31.884Z,100770.97
2022-12-20T16:21:49.787Z,100768.28
2022-12-20T16:23:53.034Z,100752.28
2022-12-20T16:25:56.157Z,100752.28
2022-12-20T16:27:58.289Z,100762.06
2022-12-20T16:30:03.748Z,100753.16
2022-12-20T16:32:23.598Z,100758.47
2022-12-20T16:34:25.916Z,100756.72
2022-12-20T16:36:27.983Z,100762.03
2022-12-20T16:38:30.312Z,100763.81
2022-12-20T16:40:33.583Z,100764.72
2022-12-20T16:42:35.552Z,100766.50
2022-12-20T16:44:39.752Z,100768.28
2022-12-20T16:46:42.585Z,100765.63
2022-12-20T16:48:45.464Z,100763.81
2022-12-20T16:50:47.578Z,100758.47
2022-12-20T16:52:50.938Z,100763.84
2022-12-20T16:54:53.081Z,100762.91
2022-12-20T16:56:56.968Z,100755.81
2022-12-20T16:59:18.700Z,100755.81
2022-12-20T17:01:25.264Z,100754.03
2022-12-20T17:03:27.510Z,100746.91
2022-12-20T17:05:33.527Z,100743.34
2022-12-20T17:07:41.255Z,100746.03
2022-12-20T17:09:43.808Z,100741.56
2022-12-20T17:11:46.999Z,100745.13
2022-12-20T17:13:52.192Z,100752.25
2022-12-20T17:15:54.310Z,100744.22
2022-12-20T17:17:56.465Z,100739.81
2022-12-20T17:19:59.073Z,100753.09
2022-12-20T17:24:22.943Z,100743.31
2022-12-20T17:26:27.420Z,100746.88
2022-12-20T17:28:29.735Z,100742.41
2022-12-20T17:30:32.254Z,100745.09
2022-12-20T17:32:34.525Z,100750.44
2022-12-20T17:34:36.802Z,100749.53
2022-12-20T17:36:41.834Z,100745.09
2022-12-20T17:38:44.431Z,100745.97
2022-12-20T17:40:46.699Z,100755.72
2022-12-20T17:42:49.353Z,100753.97
2022-12-20T17:44:51.695Z,100746.84
2022-12-20T17:46:58.777Z,100751.28
2022-12-20T17:49:01.176Z,100746.88
2022-12-20T17:51:04.122Z,100738.84
2022-12-20T17:53:06.382Z,100747.72
2022-12-20T17:55:16.166Z,100739.72
2022-12-20T17:57:18.103Z,100745.06
2022-12-20T17:59:20.818Z,100746.84
2022-12-20T18:01:25.397Z,100752.16
2022-12-20T18:04:02.120Z,100748.56
2022-12-20T18:05:53.021Z,100750.38
2022-12-20T18:07:56.076Z,100749.50
2022-12-20T18:09:58.306Z,100737.06
2022-12-20T18:12:03.589Z,100748.59
2022-12-20T18:14:05.675Z,100743.25
2022-12-20T18:16:08.527Z,100738.84
2022-12-20T18:18:10.586Z,100735.31
2022-12-20T18:20:13.467Z,100752.13
2022-12-20T18:22:15.647Z,100756.56
2022-12-20T18:24:18.251Z,100749.44
2022-12-20T18:26:23.534Z,100754.78
2022-12-20T18:28:25.649Z,100748.56
2022-12-20T18:30:27.770Z,100753.88
2022-12-20T18:32:32.238Z,100754.75
2022-12-20T18:34:34.434Z,100753.88
2022-12-20T18:36:39.416Z,100749.44
2022-12-20T18:38:43.229Z,100752.09
2022-12-20T18:40:45.980Z,100760.06
2022-12-20T18:42:48.092Z,100759.19
2022-12-20T18:44:50.300Z,100758.28
2022-12-20T18:46:52.417Z,100755.59
2022-12-20T18:48:56.013Z,100753.84
2022-12-20T18:51:04.143Z,100758.22
2022-12-20T18:53:06.224Z,100760.91
2022-12-20T18:55:08.743Z,100755.56
2022-12-20T18:57:10.948Z,100749.31
2022-12-20T18:59:13.429Z,100753.75
2022-12-20T19:01:18.983Z,100749.28
2022-12-20T19:03:21.291Z,100748.41
2022-12-20T19:05:24.837Z,100750.16
2022-12-20T19:07:27.097Z,100741.25
2022-12-20T19:09:29.067Z,100744.81
2022-12-20T19:11:31.582Z,100744.81
2022-12-20T19:13:33.628Z,100741.25
2022-12-20T19:15:35.727Z,100743.91
2022-12-20T19:17:38.151Z,100737.66
2022-12-20T19:19:40.525Z,100733.19
2022-12-20T19:21:42.834Z,100724.34
2022-12-20T19:23:48.722Z,100730.53
2022-12-20T19:25:52.541Z,100723.41
2022-12-20T19:27:55.002Z,100729.59
2022-12-20T19:29:57.001Z,100726.06
2022-12-20T19:31:59.187Z,100725.13
2022-12-20T19:34:04.400Z,100713.66
2022-12-20T19:36:14.506Z,100727.78
2022-12-20T19:38:16.923Z,100721.50
2022-12-20T19:40:19.285Z,100716.16
2022-12-20T19:42:24.510Z,100712.63
2022-12-20T19:44:29.940Z,100718.84
2022-12-20T19:46:32.347Z,100724.16
2022-12-20T19:48:35.090Z,100716.16
2022-12-20T19:50:37.211Z,100714.38
2022-12-20T19:52:39.311Z,100711.69
2022-12-20T19:54:43.389Z,100703.72
2022-12-20T19:56:45.817Z,100701.03
2022-12-20T19:58:48.190Z,100693.97
2022-12-20T20:00:50.910Z,100693.00
2022-12-20T20:02:55.895Z,100701.00
2022-12-20T20:04:58.737Z,100694.78
2022-12-20T20:07:01.074Z,100685.88
2022-12-20T20:09:03.811Z,100680.56
2022-12-20T20:11:09.816Z,100673.50
2022-12-20T20:13:12.760Z,100668.16
2022-12-20T20:15:17.394Z,100669.03
2022-12-20T20:17:19.591Z,100672.56
2022-12-20T20:19:22.250Z,100684.03
2022-12-20T20:21:25.134Z,100674.31
2022-12-20T20:23:27.409Z,100671.63
2022-12-20T20:25:29.642Z,100667.19
2022-12-20T20:27:31.659Z,100669.91
2022-12-20T20:29:33.829Z,100669.06
2022-12-20T20:31:37.008Z,100675.22
2022-12-20T20:33:39.408Z,100665.47
2022-12-20T20:35:42.397Z,100675.22
2022-12-20T20:37:45.345Z,100682.31
2022-12-20T20:39:48.014Z,100689.38
2022-12-20T20:41:50.207Z,100692.91
2022-12-20T20:43:52.827Z,100679.69
2022-12-20T20:45:55.158Z,100668.09
2022-12-20T20:48:01.156Z,100675.22
2022-12-20T20:50:07.149Z,100676.09
2022-12-20T20:52:09.287Z,100679.66
2022-12-20T20:54:11.546Z,100676.13
2022-12-20T20:56:13.694Z,100670.81
2022-12-20T20:58:16.667Z,100669.88
2022-12-20T21:00:19.465Z,100669.94
2022-12-20T21:02:23.952Z,100663.69
2022-12-20T21:04:26.117Z,100666.41
2022-12-20T21:06:39.220Z,100662.84
2022-12-20T21:08:43.244Z,100649.53
2022-12-20T21:10:45.407Z,100653.06
2022-12-20T21:12:48.321Z,100646.84
2022-12-20T21:17:12.995Z,100645.03
2022-12-20T21:19:15.012Z,100652.09
2022-12-20T21:21:17.382Z,100655.69
2022-12-20T21:23:22.754Z,100652.16
2022-12-20T21:25:27.683Z,100650.41
2022-12-20T21:27:29.811Z,100656.59
2022-12-20T21:29:32.118Z,100645.06
2022-12-20T21:31:35.429Z,100641.50
2022-12-20T21:33:38.573Z,100637.88
2022-12-20T21:35:40.990Z,100632.66
2022-12-20T21:37:43.383Z,100637.97
2022-12-20T21:39:45.678Z,100632.63
2022-12-20T21:41:48.211Z,100629.09
2022-12-20T21:43:51.603Z,100631.78
2022-12-20T21:45:54.105Z,100643.22
2022-12-20T21:48:02.748Z,100649.44
2022-12-20T21:50:06.007Z,100634.41
2022-12-20T21:52:08.350Z,100623.72
2022-12-20T21:54:10.846Z,100619.28
2022-12-20T21:56:18.196Z,100629.06
2022-12-20T21:58:20.842Z,100641.44
2022-12-20T22:00:23.419Z,100637.88
2022-12-20T22:02:25.714Z,100636.09
2022-12-20T22:04:28.294Z,100631.66
2022-12-20T22:06:31.681Z,100632.59
2022-12-20T22:08:35.028Z,100629.88
2022-12-20T22:10:37.109Z,100617.50
2022-12-20T22:12:39.450Z,100620.16
2022-12-20T22:14:41.626Z,100613.97
2022-12-20T22:16:44.399Z,100607.72
2022-12-20T22:18:50.222Z,100619.22
2022-12-20T22:20:52.736Z,100617.47
2022-12-20T22:22:57.661Z,100613.94
2022-12-20T22:25:02.408Z,100613.94
2022-12-20T22:27:11.021Z,100613.00
2022-12-20T22:29:16.349Z,100608.63
2022-12-20T22:31:19.719Z,100607.75
2022-12-20T22:33:23.077Z,100597.97
2022-12-20T22:35:25.149Z,100593.53
2022-12-20T22:37:28.538Z,100591.78
2022-12-20T22:39:30.546Z,100595.31
2022-12-20T22:41:37.095Z,100593.53
2022-12-20T22:43:42.241Z,100592.66
2022-12-20T22:45:44.439Z,100596.22
2022-12-20T22:47:46.901Z,100597.97
2022-12-20T22:49:49.228Z,100598.81
2022-12-20T22:52:02.741Z,100597.03
2022-12-20T22:54:09.473Z,100603.22
2022-12-20T22:56:12.508Z,100605.00
2022-12-20T22:58:15.021Z,100594.31
2022-12-20T23:00:17.416Z,100590.78
2022-12-20T23:02:19.833Z,100592.50
2022-12-20T23:04:22.256Z,100590.69
2022-12-20T23:06:24.521Z,100584.47
2022-12-20T23:08:29.741Z,100583.63
2022-12-20T23:10:51.518Z,100584.47
2022-12-20T23:13:12.068Z,100579.19
2022-12-20T23:15:32.553Z,100572.06
2022-12-20T23:17:37.044Z,100565.84
2022-12-20T23:19:57.513Z,100575.63
2022-12-20T23:22:18.364Z,100576.41
2022-12-20T23:24:22.947Z,100570.25
2022-12-20T23:26:26.847Z,100579.97
2022-12-20T23:28:29.000Z,100574.66
2022-12-20T23:30:31.049Z,100569.34
2022-12-20T23:32:35.917Z,100571.09
2022-12-20T23:34:38.004Z,100567.59
2022-12-20T23:36:41.090Z,100556.09
2022-12-20T23:38:46.060Z,100553.41
2022-12-20T23:40:48.359Z,100549.78
2022-12-20T23:42:53.751Z,100552.47
2022-12-20T23:44:58.885Z,100543.63
2022-12-20T23:47:01.135Z,100532.97
2022-12-20T23:49:03.559Z,100539.94
2022-12-20T23:51:06.464Z,100539.16
2022-12-20T23:53:08.874Z,100539.97
2022-12-20T23:55:11.395Z,100539.88
2022-12-20T23:57:14.185Z,100535.53
2022-12-20T23:59:16.355Z,100530.19
